createdAt,value
2022-09-18T00:00:01.040Z,98809.91
2022-09-18T00:00:10.996Z,98806.92
2022-09-18T00:00:20.955Z,98807.66
2022-09-18T00:00:31.034Z,98803.12
2022-09-18T00:00:40.997Z,98807.09
2022-09-18T00:00:50.953Z,98808.84
2022-09-18T00:01:01.032Z,98815.95
2022-09-18T00:01:10.933Z,98809.98
2022-09-18T00:01:21.005Z,98816.52
2022-09-18T00:01:31.047Z,98807.50
2022-09-18T00:01:41.169Z,98810.08
2022-09-18T00:01:51.011Z,98811.81
2022-09-18T00:02:01.079Z,98804.89
2022-09-18T00:02:11.112Z,98813.31
2022-09-18T00:02:20.985Z,98805.62
2022-09-18T00:02:31.038Z,98801.14
2022-09-18T00:02:41.015Z,98813.48
2022-09-18T00:02:51.051Z,98806.01
2022-09-18T00:03:00.978Z,98816.08
2022-09-18T00:03:11.133Z,98811.95
2022-09-18T00:03:21.030Z,98810.66
2022-09-18T00:03:31.000Z,98812.38
2022-09-18T00:03:41.033Z,98820.42
2022-09-18T00:03:51.047Z,98806.84
2022-09-18T00:04:00.958Z,98817.86
2022-09-18T00:04:10.970Z,98807.11
2022-09-18T00:04:20.961Z,98807.92
2022-09-18T00:04:30.989Z,98799.01
2022-09-18T00:04:40.995Z,98808.83
2022-09-18T00:04:50.937Z,98810.32
2022-09-18T00:05:00.988Z,98807.38
2022-09-18T00:05:11.065Z,98808.83
2022-09-18T00:05:21.029Z,98810.58
2022-09-18T00:05:31.043Z,98811.73
2022-09-18T00:05:40.929Z,98814.94
2022-09-18T00:05:50.981Z,98819.18
2022-09-18T00:06:00.984Z,98809.08
2022-09-18T00:06:10.946Z,98807.84
2022-09-18T00:06:21.017Z,98804.70
2022-09-18T00:06:30.938Z,98811.97
2022-09-18T00:06:41.053Z,98812.30
2022-09-18T00:06:50.936Z,98818.73
2022-09-18T00:07:01.009Z,98823.22
2022-09-18T00:07:10.978Z,98812.51
2022-09-18T00:07:20.994Z,98815.55
2022-09-18T00:07:31.009Z,98812.33
2022-09-18T00:07:40.969Z,98816.94
2022-09-18T00:07:50.977Z,98815.80
2022-09-18T00:08:00.971Z,98814.78
2022-09-18T00:08:11.052Z,98810.58
2022-09-18T00:08:20.997Z,98811.57
2022-09-18T00:08:31.039Z,98813.49
2022-09-18T00:08:40.921Z,98811.57
2022-09-18T00:08:50.994Z,98807.66
2022-09-18T00:09:01.111Z,98809.75
2022-09-18T00:09:11.016Z,98810.50
2022-09-18T00:09:20.921Z,98807.61
2022-09-18T00:09:30.982Z,98812.81
2022-09-18T00:09:40.937Z,98815.70
2022-09-18T00:09:51.016Z,98817.78
2022-09-18T00:10:01.031Z,98819.42
2022-09-18T00:10:11.076Z,98818.06
2022-09-18T00:10:21.061Z,98814.92
2022-09-18T00:10:31.017Z,98819.72
2022-09-18T00:10:41.033Z,98818.73
2022-09-18T00:10:51.025Z,98814.54
2022-09-18T00:11:00.960Z,98823.20
2022-09-18T00:11:10.950Z,98828.09
2022-09-18T00:11:20.927Z,98818.67
2022-09-18T00:11:30.951Z,98824.89
2022-09-18T00:11:41.053Z,98819.76
2022-09-18T00:11:51.002Z,98821.91
2022-09-18T00:12:00.950Z,98816.03
2022-09-18T00:12:11.000Z,98817.78
2022-09-18T00:12:21.009Z,98825.61
2022-09-18T00:12:31.010Z,98832.71
2022-09-18T00:12:40.947Z,98822.70
2022-09-18T00:12:50.928Z,98821.54
2022-09-18T00:13:01.062Z,98818.83
2022-09-18T00:13:11.034Z,98818.66
2022-09-18T00:13:20.997Z,98820.38
2022-09-18T00:13:31.014Z,98818.92
2022-09-18T00:13:40.954Z,98823.39
2022-09-18T00:13:51.010Z,98814.91
2022-09-18T00:14:01.015Z,98818.39
2022-09-18T00:14:10.947Z,98818.22
2022-09-18T00:14:20.952Z,98823.19
2022-09-18T00:14:30.971Z,98820.38
2022-09-18T00:14:40.962Z,98818.22
2022-09-18T00:14:50.975Z,98823.19
2022-09-18T00:15:01.039Z,98819.14
2022-09-18T00:15:11.005Z,98821.31
2022-09-18T00:15:20.990Z,98824.34
2022-09-18T00:15:30.981Z,98819.75
2022-09-18T00:15:40.967Z,98820.14
2022-09-18T00:15:50.951Z,98817.67
2022-09-18T00:16:01.014Z,98817.10
2022-09-18T00:16:11.115Z,98824.34
2022-09-18T00:16:20.993Z,98823.67
2022-09-18T00:16:31.063Z,98820.48
2022-09-18T00:16:41.133Z,98822.39
2022-09-18T00:16:50.979Z,98824.12
2022-09-18T00:17:03.750Z,98817.59
2022-09-18T00:17:10.946Z,98820.14
2022-09-18T00:17:20.951Z,98822.47
2022-09-18T00:17:30.925Z,98825.04
2022-09-18T00:17:40.934Z,98825.20
2022-09-18T00:17:51.026Z,98821.23
2022-09-18T00:18:00.929Z,98822.73
2022-09-18T00:18:10.935Z,98826.91
2022-09-18T00:18:20.988Z,98822.89
2022-09-18T00:18:31.051Z,98827.25
2022-09-18T00:18:40.951Z,98824.16
2022-09-18T00:18:51.066Z,98823.54
2022-09-18T00:19:01.032Z,98824.60
2022-09-18T00:19:10.969Z,98819.08
2022-09-18T00:19:20.937Z,98820.06
2022-09-18T00:19:30.959Z,98819.57
2022-09-18T00:19:41.011Z,98828.33
2022-09-18T00:19:51.034Z,98826.42
2022-09-18T00:20:00.956Z,98831.31
2022-09-18T00:20:10.946Z,98828.34
2022-09-18T00:20:21.001Z,98826.02
2022-09-18T00:20:30.977Z,98828.33
2022-09-18T00:20:40.974Z,98827.02
2022-09-18T00:20:50.988Z,98827.40
2022-09-18T00:21:01.047Z,98822.38
2022-09-18T00:21:11.043Z,98826.67
2022-09-18T00:21:20.968Z,98824.81
2022-09-18T00:21:30.949Z,98827.47
2022-09-18T00:21:40.915Z,98821.34
2022-09-18T00:21:51.002Z,98823.92
2022-09-18T00:22:00.934Z,98823.16
2022-09-18T00:22:10.982Z,98823.03
2022-09-18T00:22:21.025Z,98823.77
2022-09-18T00:22:30.928Z,98831.76
2022-09-18T00:22:40.983Z,98830.20
2022-09-18T00:22:51.029Z,98829.94
2022-09-18T00:23:00.960Z,98826.47
2022-09-18T00:23:11.003Z,98826.84
2022-09-18T00:23:21.023Z,98830.37
2022-09-18T00:23:30.989Z,98829.47
2022-09-18T00:23:41.002Z,98833.02
2022-09-18T00:23:51.038Z,98830.44
2022-09-18T00:24:00.999Z,98829.54
2022-09-18T00:24:10.989Z,98830.27
2022-09-18T00:24:20.953Z,98829.11
2022-09-18T00:24:31.015Z,98829.97
2022-09-18T00:24:41.013Z,98822.83
2022-09-18T00:24:50.985Z,98827.62
2022-09-18T00:25:00.963Z,98826.73
2022-09-18T00:25:11.039Z,98833.19
2022-09-18T00:25:20.990Z,98837.16
2022-09-18T00:25:30.978Z,98836.11
2022-09-18T00:25:41.024Z,98825.99
2022-09-18T00:25:51.029Z,98825.59
2022-09-18T00:26:01.046Z,98827.02
2022-09-18T00:26:10.953Z,98828.00
2022-09-18T00:26:20.986Z,98827.34
2022-09-18T00:26:30.990Z,98829.88
2022-09-18T00:26:41.037Z,98828.06
2022-09-18T00:26:51.057Z,98836.05
2022-09-18T00:27:00.997Z,98827.72
2022-09-18T00:27:11.015Z,98833.25
2022-09-18T00:27:20.939Z,98829.38
2022-09-18T00:27:30.970Z,98828.28
2022-09-18T00:27:41.064Z,98837.23
2022-09-18T00:27:50.946Z,98838.06
2022-09-18T00:28:01.072Z,98838.30
2022-09-18T00:28:11.061Z,98837.08
2022-09-18T00:28:20.956Z,98838.73
2022-09-18T00:28:31.021Z,98834.77
2022-09-18T00:28:40.968Z,98828.80
2022-09-18T00:28:51.035Z,98835.31
2022-09-18T00:29:01.032Z,98835.15
2022-09-18T00:29:11.056Z,98834.72
2022-09-18T00:29:20.963Z,98836.63
2022-09-18T00:29:31.021Z,98833.06
2022-09-18T00:29:41.013Z,98835.31
2022-09-18T00:29:50.926Z,98831.44
2022-09-18T00:30:01.050Z,98820.05
2022-09-18T00:30:10.947Z,98832.56
2022-09-18T00:30:20.927Z,98838.45
2022-09-18T00:30:30.977Z,98836.03
2022-09-18T00:30:40.966Z,98835.30
2022-09-18T00:30:51.046Z,98830.58
2022-09-18T00:31:01.120Z,98834.91
2022-09-18T00:31:11.008Z,98834.08
2022-09-18T00:31:21.159Z,98831.43
2022-09-18T00:31:31.146Z,98833.16
2022-09-18T00:31:41.097Z,98834.57
2022-09-18T00:31:51.051Z,98832.75
2022-09-18T00:32:00.998Z,98834.86
2022-09-18T00:32:10.962Z,98835.14
2022-09-18T00:32:21.041Z,98832.26
2022-09-18T00:32:30.925Z,98837.55
2022-09-18T00:32:40.983Z,98837.72
2022-09-18T00:32:50.972Z,98831.33
2022-09-18T00:33:00.955Z,98835.40
2022-09-18T00:33:10.982Z,98829.09
2022-09-18T00:33:21.034Z,98832.64
2022-09-18T00:33:30.944Z,98833.74
2022-09-18T00:33:41.031Z,98835.86
2022-09-18T00:33:51.059Z,98832.71
2022-09-18T00:34:01.017Z,98827.70
2022-09-18T00:34:10.936Z,98824.32
2022-09-18T00:34:20.935Z,98832.06
2022-09-18T00:34:30.953Z,98829.09
2022-09-18T00:34:40.944Z,98814.20
2022-09-18T00:34:50.941Z,98825.89
2022-09-18T00:35:01.050Z,98828.14
2022-09-18T00:35:10.990Z,98830.28
2022-09-18T00:35:21.064Z,98827.22
2022-09-18T00:35:31.041Z,98828.96
2022-09-18T00:35:41.046Z,98828.53
2022-09-18T00:35:51.040Z,98827.44
2022-09-18T00:36:01.052Z,98833.76
2022-09-18T00:36:10.997Z,98830.36
2022-09-18T00:36:20.925Z,98831.90
2022-09-18T00:36:30.963Z,98837.39
2022-09-18T00:36:40.998Z,98831.41
2022-09-18T00:36:50.934Z,98835.20
2022-09-18T00:37:01.036Z,98832.93
2022-09-18T00:37:10.974Z,98837.55
2022-09-18T00:37:20.988Z,98832.59
2022-09-18T00:37:30.996Z,98831.27
2022-09-18T00:37:41.024Z,98834.08
2022-09-18T00:37:51.033Z,98832.59
2022-09-18T00:38:01.032Z,98840.27
2022-09-18T00:38:10.938Z,98829.28
2022-09-18T00:38:21.056Z,98834.86
2022-09-18T00:38:30.954Z,98828.59
2022-09-18T00:38:40.989Z,98837.12
2022-09-18T00:38:50.996Z,98837.36
2022-09-18T00:39:01.123Z,98832.42
2022-09-18T00:39:11.021Z,98831.90
2022-09-18T00:39:21.005Z,98836.41
2022-09-18T00:39:30.963Z,98832.56
2022-09-18T00:39:41.045Z,98832.66
2022-09-18T00:39:51.079Z,98836.06
2022-09-18T00:40:00.949Z,98841.09
2022-09-18T00:40:11.076Z,98834.73
2022-09-18T00:40:21.137Z,98835.40
2022-09-18T00:40:31.049Z,98835.90
2022-09-18T00:40:40.942Z,98835.54
2022-09-18T00:40:51.001Z,98834.86
2022-09-18T00:41:00.949Z,98835.86
2022-09-18T00:41:10.988Z,98838.50
2022-09-18T00:41:21.064Z,98834.80
2022-09-18T00:41:31.044Z,98834.30
2022-09-18T00:41:41.018Z,98836.88
2022-09-18T00:41:50.920Z,98838.36
2022-09-18T00:42:00.976Z,98842.23
2022-09-18T00:42:11.010Z,98839.31
2022-09-18T00:42:20.964Z,98840.17
2022-09-18T00:42:30.984Z,98840.23
2022-09-18T00:42:40.980Z,98840.50
2022-09-18T00:42:51.038Z,98845.36
2022-09-18T00:43:00.976Z,98843.11
2022-09-18T00:43:11.031Z,98846.07
2022-09-18T00:43:21.017Z,98845.85
2022-09-18T00:43:30.967Z,98843.92
2022-09-18T00:43:41.037Z,98845.36
2022-09-18T00:43:50.953Z,98839.47
2022-09-18T00:44:00.938Z,98836.16
2022-09-18T00:44:11.055Z,98840.95
2022-09-18T00:44:20.945Z,98836.31
2022-09-18T00:44:30.921Z,98845.19
2022-09-18T00:44:41.020Z,98842.20
2022-09-18T00:44:50.935Z,98846.18
2022-09-18T00:45:00.924Z,98841.88
2022-09-18T00:45:11.004Z,98836.81
2022-09-18T00:45:20.937Z,98838.64
2022-09-18T00:45:31.053Z,98835.34
2022-09-18T00:45:40.936Z,98835.19
2022-09-18T00:45:51.044Z,98829.38
2022-09-18T00:46:00.926Z,98841.47
2022-09-18T00:46:11.051Z,98838.47
2022-09-18T00:46:21.076Z,98834.83
2022-09-18T00:46:30.963Z,98831.69
2022-09-18T00:46:41.012Z,98832.45
2022-09-18T00:46:51.013Z,98836.18
2022-09-18T00:47:01.028Z,98842.03
2022-09-18T00:47:11.071Z,98836.41
2022-09-18T00:47:21.026Z,98833.69
2022-09-18T00:47:30.931Z,98838.06
2022-09-18T00:47:40.986Z,98834.00
2022-09-18T00:47:50.942Z,98848.05
2022-09-18T00:48:00.942Z,98830.47
2022-09-18T00:48:10.995Z,98837.08
2022-09-18T00:48:20.959Z,98844.25
2022-09-18T00:48:30.995Z,98837.64
2022-09-18T00:48:41.058Z,98837.98
2022-09-18T00:48:51.187Z,98839.02
2022-09-18T00:49:00.991Z,98841.78
2022-09-18T00:49:10.956Z,98833.80
2022-09-18T00:49:20.920Z,98835.27
2022-09-18T00:49:30.930Z,98836.86
2022-09-18T00:49:40.983Z,98835.50
2022-09-18T00:49:50.966Z,98835.70
2022-09-18T00:50:01.012Z,98833.69
2022-09-18T00:50:10.952Z,98835.75
2022-09-18T00:50:21.056Z,98838.73
2022-09-18T00:50:31.012Z,98834.20
2022-09-18T00:50:41.015Z,98835.02
2022-09-18T00:50:50.992Z,98835.84
2022-09-18T00:51:00.950Z,98839.55
2022-09-18T00:51:11.019Z,98837.00
2022-09-18T00:51:20.987Z,98842.30
2022-09-18T00:51:31.004Z,98836.63
2022-09-18T00:51:41.062Z,98838.38
2022-09-18T00:51:50.949Z,98837.23
2022-09-18T00:52:01.042Z,98836.73
2022-09-18T00:52:11.148Z,98841.95
2022-09-18T00:52:20.927Z,98842.02
2022-09-18T00:52:30.926Z,98836.33
2022-09-18T00:52:41.017Z,98834.14
2022-09-18T00:52:51.045Z,98833.02
2022-09-18T00:53:01.045Z,98835.14
2022-09-18T00:53:10.954Z,98839.60
2022-09-18T00:53:20.976Z,98834.34
2022-09-18T00:53:30.993Z,98835.00
2022-09-18T00:53:41.011Z,98835.00
2022-09-18T00:53:51.047Z,98835.80
2022-09-18T00:54:01.030Z,98837.27
2022-09-18T00:54:10.958Z,98835.83
2022-09-18T00:54:20.934Z,98835.16
2022-09-18T00:54:30.931Z,98838.03
2022-09-18T00:54:40.967Z,98840.02
2022-09-18T00:54:50.929Z,98841.17
2022-09-18T00:55:00.926Z,98839.35
2022-09-18T00:55:10.945Z,98836.64
2022-09-18T00:55:20.945Z,98840.84
2022-09-18T00:55:30.919Z,98838.92
2022-09-18T00:55:41.015Z,98836.44
2022-09-18T00:55:50.992Z,98833.72
2022-09-18T00:56:00.951Z,98837.69
2022-09-18T00:56:11.029Z,98839.44
2022-09-18T00:56:20.972Z,98837.42
2022-09-18T00:56:31.001Z,98839.77
2022-09-18T00:56:40.950Z,98841.83
2022-09-18T00:56:50.936Z,98843.55
2022-09-18T00:57:00.982Z,98839.41
2022-09-18T00:57:11.058Z,98843.71
2022-09-18T00:57:21.053Z,98837.30
2022-09-18T00:57:30.974Z,98842.09
2022-09-18T00:57:40.972Z,98841.26
2022-09-18T00:57:50.972Z,98836.59
2022-09-18T00:58:01.039Z,98846.52
2022-09-18T00:58:11.043Z,98849.86
2022-09-18T00:58:20.944Z,98844.63
2022-09-18T00:58:30.983Z,98842.81
2022-09-18T00:58:40.988Z,98848.04
2022-09-18T00:58:51.050Z,98849.53
2022-09-18T00:59:00.968Z,98845.19
2022-09-18T00:59:11.071Z,98845.28
2022-09-18T00:59:20.988Z,98842.75
2022-09-18T00:59:30.955Z,98843.30
2022-09-18T00:59:41.022Z,98847.98
2022-09-18T00:59:51.066Z,98848.41
2022-09-18T01:00:00.925Z,98843.36
2022-09-18T01:00:10.978Z,98855.75
2022-09-18T01:00:21.025Z,98845.03
2022-09-18T01:00:30.941Z,98837.56
2022-09-18T01:00:41.016Z,98847.33
2022-09-18T01:00:51.066Z,98848.18
2022-09-18T01:01:01.093Z,98854.30
2022-09-18T01:01:11.050Z,98854.14
2022-09-18T01:01:21.163Z,98856.17
2022-09-18T01:01:30.999Z,98852.87
2022-09-18T01:01:41.128Z,98850.66
2022-09-18T01:01:51.210Z,98853.31
2022-09-18T01:02:01.037Z,98858.49
2022-09-18T01:02:11.106Z,98857.33
2022-09-18T01:02:21.106Z,98856.44
2022-09-18T01:02:31.129Z,98860.41
2022-09-18T01:02:41.041Z,98855.10
2022-09-18T01:02:50.920Z,98857.48
2022-09-18T01:03:00.924Z,98857.91
2022-09-18T01:03:11.056Z,98853.19
2022-09-18T01:03:21.035Z,98856.26
2022-09-18T01:03:30.942Z,98853.51
2022-09-18T01:03:41.071Z,98852.29
2022-09-18T01:03:51.035Z,98855.33
2022-09-18T01:04:01.074Z,98854.66
2022-09-18T01:04:10.998Z,98856.31
2022-09-18T01:04:21.000Z,98853.24
2022-09-18T01:04:30.949Z,98861.22
2022-09-18T01:04:41.047Z,98863.38
2022-09-18T01:04:51.028Z,98861.84
2022-09-18T01:05:00.932Z,98861.45
2022-09-18T01:05:10.945Z,98864.09
2022-09-18T01:05:20.997Z,98865.69
2022-09-18T01:05:30.994Z,98870.47
2022-09-18T01:05:41.007Z,98859.30
2022-09-18T01:05:51.047Z,98861.66
2022-09-18T01:06:00.936Z,98861.34
2022-09-18T01:06:11.052Z,98861.00
2022-09-18T01:06:21.047Z,98859.84
2022-09-18T01:06:31.038Z,98856.20
2022-09-18T01:06:41.071Z,98854.07
2022-09-18T01:06:51.001Z,98857.64
2022-09-18T01:07:01.053Z,98853.91
2022-09-18T01:07:11.068Z,98855.89
2022-09-18T01:07:21.007Z,98852.62
2022-09-18T01:07:30.925Z,98857.32
2022-09-18T01:07:40.975Z,98858.87
2022-09-18T01:07:50.974Z,98858.22
2022-09-18T01:08:00.962Z,98859.97
2022-09-18T01:08:10.932Z,98857.50
2022-09-18T01:08:20.926Z,98860.20
2022-09-18T01:08:30.948Z,98859.09
2022-09-18T01:08:44.045Z,98863.67
2022-09-18T01:08:51.010Z,98861.97
2022-09-18T01:09:00.972Z,98857.89
2022-09-18T01:09:10.930Z,98865.52
2022-09-18T01:09:28.342Z,98868.39
2022-09-18T01:09:31.025Z,98868.13
2022-09-18T01:09:40.966Z,98869.05
2022-09-18T01:09:50.960Z,98864.86
2022-09-18T01:10:01.006Z,98867.73
2022-09-18T01:10:11.020Z,98866.46
2022-09-18T01:10:20.991Z,98868.89
2022-09-18T01:10:30.976Z,98860.62
2022-09-18T01:10:41.023Z,98864.09
2022-09-18T01:10:51.001Z,98865.56
2022-09-18T01:11:04.731Z,98864.85
2022-09-18T01:11:11.021Z,98868.78
2022-09-18T01:11:20.956Z,98872.84
2022-09-18T01:11:30.972Z,98871.12
2022-09-18T01:11:40.992Z,98868.71
2022-09-18T01:11:50.970Z,98870.75
2022-09-18T01:12:01.038Z,98872.62
2022-09-18T01:12:10.971Z,98874.39
2022-09-18T01:12:20.976Z,98874.98
2022-09-18T01:12:30.963Z,98874.48
2022-09-18T01:12:40.930Z,98874.98
2022-09-18T01:12:50.997Z,98872.78
2022-09-18T01:13:00.921Z,98878.09
2022-09-18T01:13:10.941Z,98879.78
2022-09-18T01:13:21.014Z,98883.26
2022-09-18T01:13:30.921Z,98881.22
2022-09-18T01:13:40.949Z,98880.29
2022-09-18T01:13:50.984Z,98879.19
2022-09-18T01:14:00.968Z,98880.28
2022-09-18T01:14:10.936Z,98876.94
2022-09-18T01:14:20.989Z,98873.44
2022-09-18T01:14:30.948Z,98875.59
2022-09-18T01:14:40.945Z,98877.87
2022-09-18T01:14:51.045Z,98876.91
2022-09-18T01:15:00.990Z,98879.69
2022-09-18T01:15:10.969Z,98877.09
2022-09-18T01:15:20.983Z,98878.70
2022-09-18T01:15:30.966Z,98882.50
2022-09-18T01:15:41.094Z,98879.89
2022-09-18T01:15:51.040Z,98876.25
2022-09-18T01:16:01.020Z,98875.88
2022-09-18T01:16:11.029Z,98873.17
2022-09-18T01:16:21.017Z,98875.59
2022-09-18T01:16:31.068Z,98879.30
2022-09-18T01:16:40.978Z,98875.09
2022-09-18T01:16:51.032Z,98871.52
2022-09-18T01:17:01.001Z,98875.66
2022-09-18T01:17:11.026Z,98874.44
2022-09-18T01:17:20.925Z,98879.56
2022-09-18T01:17:30.971Z,98885.80
2022-09-18T01:17:41.035Z,98882.34
2022-09-18T01:17:51.030Z,98881.34
2022-09-18T01:18:00.935Z,98879.23
2022-09-18T01:18:11.010Z,98882.20
2022-09-18T01:18:21.038Z,98876.47
2022-09-18T01:18:30.945Z,98877.47
2022-09-18T01:18:40.940Z,98878.36
2022-09-18T01:18:51.090Z,98882.04
2022-09-18T01:19:00.944Z,98886.73
2022-09-18T01:19:10.925Z,98878.20
2022-09-18T01:19:20.993Z,98873.44
2022-09-18T01:19:31.001Z,98880.08
2022-09-18T01:19:40.972Z,98880.94
2022-09-18T01:19:51.001Z,98882.81
2022-09-18T01:20:00.951Z,98879.51
2022-09-18T01:20:10.930Z,98879.51
2022-09-18T01:20:21.039Z,98880.00
2022-09-18T01:20:31.047Z,98879.18
2022-09-18T01:20:41.053Z,98877.69
2022-09-18T01:20:51.023Z,98883.87
2022-09-18T01:21:00.964Z,98883.70
2022-09-18T01:21:10.985Z,98886.52
2022-09-18T01:21:21.031Z,98882.75
2022-09-18T01:21:31.029Z,98876.86
2022-09-18T01:21:40.929Z,98885.02
2022-09-18T01:21:50.939Z,98870.96
2022-09-18T01:22:00.983Z,98874.55
2022-09-18T01:22:11.017Z,98874.71
2022-09-18T01:22:21.036Z,98876.59
2022-09-18T01:22:30.983Z,98878.02
2022-09-18T01:22:41.019Z,98868.65
2022-09-18T01:22:50.947Z,98872.06
2022-09-18T01:23:00.961Z,98880.17
2022-09-18T01:23:11.030Z,98881.22
2022-09-18T01:23:21.006Z,98880.39
2022-09-18T01:23:31.030Z,98876.59
2022-09-18T01:23:40.962Z,98882.33
2022-09-18T01:23:50.941Z,98886.78
2022-09-18T01:24:01.150Z,98883.23
2022-09-18T01:24:11.055Z,98878.73
2022-09-18T01:24:20.950Z,98884.06
2022-09-18T01:24:30.927Z,98880.75
2022-09-18T01:24:40.981Z,98882.86
2022-09-18T01:24:50.976Z,98881.41
2022-09-18T01:25:01.039Z,98877.83
2022-09-18T01:25:10.954Z,98883.12
2022-09-18T01:25:20.984Z,98880.09
2022-09-18T01:25:31.038Z,98881.70
2022-09-18T01:25:41.052Z,98883.29
2022-09-18T01:25:51.035Z,98882.73
2022-09-18T01:26:01.011Z,98879.16
2022-09-18T01:26:10.998Z,98879.16
2022-09-18T01:26:20.931Z,98878.60
2022-09-18T01:26:30.955Z,98878.77
2022-09-18T01:26:40.946Z,98879.66
2022-09-18T01:26:50.960Z,98875.09
2022-09-18T01:27:00.933Z,98878.50
2022-09-18T01:27:10.940Z,98877.91
2022-09-18T01:27:20.991Z,98877.77
2022-09-18T01:27:30.941Z,98881.05
2022-09-18T01:27:40.974Z,98881.64
2022-09-18T01:27:51.001Z,98883.53
2022-09-18T01:28:01.054Z,98887.67
2022-09-18T01:28:10.984Z,98878.50
2022-09-18T01:28:21.013Z,98876.20
2022-09-18T01:28:30.928Z,98879.43
2022-09-18T01:28:40.927Z,98880.23
2022-09-18T01:28:51.054Z,98883.38
2022-09-18T01:29:00.969Z,98879.94
2022-09-18T01:29:10.958Z,98874.71
2022-09-18T01:29:21.047Z,98871.41
2022-09-18T01:29:31.023Z,98874.88
2022-09-18T01:29:41.027Z,98880.41
2022-09-18T01:29:50.978Z,98877.24
2022-09-18T01:30:01.029Z,98873.41
2022-09-18T01:30:11.065Z,98876.75
2022-09-18T01:30:21.029Z,98888.66
2022-09-18T01:30:31.040Z,98877.64
2022-09-18T01:30:40.976Z,98875.73
2022-09-18T01:30:51.016Z,98878.15
2022-09-18T01:31:00.939Z,98874.52
2022-09-18T01:31:10.985Z,98879.64
2022-09-18T01:31:21.034Z,98870.32
2022-09-18T01:31:31.249Z,98866.80
2022-09-18T01:31:41.070Z,98874.79
2022-09-18T01:31:51.040Z,98873.30
2022-09-18T01:32:00.930Z,98873.12
2022-09-18T01:32:10.968Z,98876.52
2022-09-18T01:32:20.986Z,98874.28
2022-09-18T01:32:31.041Z,98868.41
2022-09-18T01:32:41.006Z,98875.10
2022-09-18T01:32:51.019Z,98872.16
2022-09-18T01:33:00.931Z,98874.64
2022-09-18T01:33:10.928Z,98875.80
2022-09-18T01:33:20.943Z,98873.66
2022-09-18T01:33:30.944Z,98874.31
2022-09-18T01:33:40.999Z,98875.77
2022-09-18T01:33:51.133Z,98874.22
2022-09-18T01:34:00.978Z,98873.00
2022-09-18T01:34:11.031Z,98873.00
2022-09-18T01:34:21.019Z,98870.16
2022-09-18T01:34:31.009Z,98872.02
2022-09-18T01:34:41.056Z,98875.88
2022-09-18T01:34:51.051Z,98876.53
2022-09-18T01:35:06.397Z,98879.19
2022-09-18T01:35:36.753Z,98881.73
2022-09-18T01:35:41.003Z,98880.02
2022-09-18T01:35:42.273Z,98878.70
2022-09-18T01:35:46.928Z,98882.55
2022-09-18T01:35:51.067Z,98876.45
2022-09-18T01:36:01.052Z,98873.65
2022-09-18T01:36:11.049Z,98874.47
2022-09-18T01:36:20.998Z,98878.22
2022-09-18T01:36:31.029Z,98870.84
2022-09-18T01:36:40.946Z,98873.26
2022-09-18T01:36:50.953Z,98877.96
2022-09-18T01:37:01.055Z,98878.33
2022-09-18T01:37:10.953Z,98875.66
2022-09-18T01:37:20.998Z,98879.38
2022-09-18T01:37:31.041Z,98873.17
2022-09-18T01:37:41.006Z,98873.17
2022-09-18T01:37:51.062Z,98878.95
2022-09-18T01:38:01.054Z,98874.11
2022-09-18T01:38:11.033Z,98874.44
2022-09-18T01:38:20.988Z,98872.06
2022-09-18T01:38:30.950Z,98879.56
2022-09-18T01:38:41.003Z,98881.83
2022-09-18T01:38:50.975Z,98879.74
2022-09-18T01:39:01.050Z,98867.09
2022-09-18T01:39:11.035Z,98880.17
2022-09-18T01:39:20.968Z,98873.54
2022-09-18T01:39:31.055Z,98878.33
2022-09-18T01:39:41.030Z,98875.85
2022-09-18T01:39:51.055Z,98874.30
2022-09-18T01:40:00.936Z,98875.20
2022-09-18T01:40:10.993Z,98874.70
2022-09-18T01:40:21.077Z,98874.91
2022-09-18T01:40:31.124Z,98878.38
2022-09-18T01:40:41.114Z,98874.97
2022-09-18T01:40:50.968Z,98879.92
2022-09-18T01:41:01.007Z,98876.22
2022-09-18T01:41:10.928Z,98867.43
2022-09-18T01:41:21.057Z,98874.47
2022-09-18T01:41:31.045Z,98880.02
2022-09-18T01:41:40.965Z,98879.70
2022-09-18T01:41:51.060Z,98871.31
2022-09-18T01:42:01.046Z,98872.38
2022-09-18T01:42:10.946Z,98876.02
2022-09-18T01:42:21.009Z,98875.52
2022-09-18T01:42:31.012Z,98873.54
2022-09-18T01:42:41.017Z,98873.87
2022-09-18T01:42:51.032Z,98874.52
2022-09-18T01:43:01.047Z,98870.98
2022-09-18T01:43:10.958Z,98876.84
2022-09-18T01:43:21.123Z,98877.94
2022-09-18T01:43:31.039Z,98879.20
2022-09-18T01:43:40.997Z,98876.55
2022-09-18T01:43:51.026Z,98882.23
2022-09-18T01:44:01.035Z,98882.23
2022-09-18T01:44:11.036Z,98879.00
2022-09-18T01:44:21.032Z,98868.62
2022-09-18T01:44:31.041Z,98874.48
2022-09-18T01:44:41.033Z,98867.98
2022-09-18T01:44:50.987Z,98876.05
2022-09-18T01:45:00.980Z,98882.83
2022-09-18T01:45:11.002Z,98881.77
2022-09-18T01:45:21.045Z,98880.55
2022-09-18T01:45:30.961Z,98870.63
2022-09-18T01:45:40.992Z,98878.70
2022-09-18T01:45:50.952Z,98877.05
2022-09-18T01:46:01.036Z,98874.89
2022-09-18T01:46:11.052Z,98874.23
2022-09-18T01:46:21.125Z,98868.47
2022-09-18T01:46:31.022Z,98873.00
2022-09-18T01:46:41.016Z,98877.30
2022-09-18T01:46:51.053Z,98880.71
2022-09-18T01:47:01.112Z,98870.09
2022-09-18T01:47:11.049Z,98885.96
2022-09-18T01:47:20.967Z,98884.75
2022-09-18T01:47:30.997Z,98878.90
2022-09-18T01:47:40.931Z,98885.80
2022-09-18T01:47:50.983Z,98887.06
2022-09-18T01:48:00.929Z,98888.29
2022-09-18T01:48:11.052Z,98884.31
2022-09-18T01:48:21.044Z,98881.04
2022-09-18T01:48:30.927Z,98869.97
2022-09-18T01:48:41.024Z,98877.89
2022-09-18T01:48:51.020Z,98873.52
2022-09-18T01:49:00.923Z,98873.02
2022-09-18T01:49:10.941Z,98871.62
2022-09-18T01:49:21.017Z,98875.56
2022-09-18T01:49:31.053Z,98882.17
2022-09-18T01:49:40.995Z,98883.27
2022-09-18T01:49:50.950Z,98883.43
2022-09-18T01:50:00.938Z,98877.15
2022-09-18T01:50:10.929Z,98886.19
2022-09-18T01:50:20.973Z,98888.13
2022-09-18T01:50:30.945Z,98873.02
2022-09-18T01:50:40.975Z,98883.27
2022-09-18T01:50:51.059Z,98878.32
2022-09-18T01:51:01.020Z,98876.51
2022-09-18T01:51:10.925Z,98870.89
2022-09-18T01:51:20.987Z,98878.55
2022-09-18T01:51:30.976Z,98880.73
2022-09-18T01:51:40.988Z,98881.03
2022-09-18T01:51:50.941Z,98885.27
2022-09-18T01:52:01.032Z,98886.16
2022-09-18T01:52:15.539Z,98882.78
2022-09-18T01:52:20.978Z,98883.93
2022-09-18T01:52:31.071Z,98881.68
2022-09-18T01:52:41.051Z,98877.72
2022-09-18T01:52:50.974Z,98872.95
2022-09-18T01:53:01.069Z,98866.17
2022-09-18T01:53:10.936Z,98872.84
2022-09-18T01:53:20.990Z,98878.14
2022-09-18T01:53:31.063Z,98875.33
2022-09-18T01:53:41.005Z,98875.17
2022-09-18T01:53:50.979Z,98874.28
2022-09-18T01:54:01.063Z,98878.22
2022-09-18T01:54:11.035Z,98875.11
2022-09-18T01:54:20.958Z,98873.75
2022-09-18T01:54:30.994Z,98876.84
2022-09-18T01:54:40.941Z,98872.94
2022-09-18T01:54:51.006Z,98877.27
2022-09-18T01:55:01.023Z,98879.48
2022-09-18T01:55:11.041Z,98869.34
2022-09-18T01:55:20.936Z,98873.38
2022-09-18T01:55:30.975Z,98876.75
2022-09-18T01:55:41.005Z,98881.81
2022-09-18T01:55:51.014Z,98875.80
2022-09-18T01:56:00.972Z,98869.09
2022-09-18T01:56:10.966Z,98869.32
2022-09-18T01:56:21.008Z,98878.34
2022-09-18T01:56:31.011Z,98879.24
2022-09-18T01:56:40.983Z,98874.16
2022-09-18T01:56:50.973Z,98866.84
2022-09-18T01:57:00.992Z,98875.64
2022-09-18T01:57:10.979Z,98877.62
2022-09-18T01:57:21.046Z,98870.59